Time;durP1;ratioP1;P1;durP2;ratioP2;P2;SDS_P1;SDS_P2;PMS_P1;PMS_P2;Temp;Humidity;BMP_temperature;BMP_pressure;BME280_temperature;BME280_humidity;BME280_pressure;Samples;Min_cycle;Max_cycle;Signal;HPM_P1;HPM_P2
2021/04/27 00:01:18;;;;;;;1.48;0.90;;;;;;;6.51;42.62;98689.09;1988599;79;21690;-73
2021/04/27 00:04:19;;;;;;;1.02;0.90;;;;;;;6.48;42.59;98680.50;1986626;81;20209;-74
2021/04/27 00:07:21;;;;;;;2.44;0.90;;;;;;;6.47;42.35;98676.22;1989710;81;20374;-73
2021/04/27 00:10:23;;;;;;;1.52;0.80;;;;;;;6.45;42.42;98671.03;1986439;81;20617;-74
2021/04/27 00:13:26;;;;;;;2.11;0.94;;;;;;;6.38;42.51;98671.03;1986629;81;20303;-73
2021/04/27 00:16:28;;;;;;;1.40;0.74;;;;;;;6.36;42.12;98665.88;1987635;79;22112;-74
2021/04/27 00:19:30;;;;;;;2.40;0.82;;;;;;;6.34;42.57;98665.88;1992231;81;20784;-74
2021/04/27 00:22:32;;;;;;;1.06;0.90;;;;;;;6.29;42.61;98662.44;1991265;81;20386;-74
2021/04/27 00:25:35;;;;;;;1.74;0.80;;;;;;;6.28;43.49;98658.16;1991857;81;20376;-74
2021/04/27 00:28:37;;;;;;;1.35;0.80;;;;;;;6.27;43.11;98663.28;1991070;81;20336;-74
2021/04/27 00:31:38;;;;;;;2.49;1.27;;;;;;;6.21;43.63;98653.81;1986530;79;23922;-73
2021/04/27 00:34:40;;;;;;;1.49;1.10;;;;;;;6.17;42.87;98664.13;1986560;81;20345;-74
2021/04/27 00:37:42;;;;;;;1.41;0.91;;;;;;;6.06;44.18;98662.38;1985890;81;20217;-74
2021/04/27 00:40:44;;;;;;;1.77;0.85;;;;;;;6.10;43.75;98658.09;1985921;81;20392;-74
2021/04/27 00:43:46;;;;;;;1.54;0.82;;;;;;;6.05;44.75;98662.38;1986076;81;20331;-74
2021/04/27 00:46:47;;;;;;;1.26;0.74;;;;;;;5.98;44.73;98660.69;1988254;78;20361;-73
2021/04/27 00:49:49;;;;;;;2.31;0.84;;;;;;;5.91;45.54;98667.50;1991324;81;20788;-74
2021/04/27 00:52:53;;;;;;;1.38;0.80;;;;;;;5.84;47.13;98664.91;1991187;81;20356;-74
2021/04/27 00:55:54;;;;;;;1.94;0.90;;;;;;;5.68;48.06;98669.13;1990814;81;20307;-73
2021/04/27 00:58:56;;;;;;;2.47;0.74;;;;;;;5.61;48.01;98662.25;1991524;81;20322;-73
2021/04/27 01:01:58;;;;;;;1.19;0.80;;;;;;;5.55;48.22;98668.22;1987511;80;21062;-73
2021/04/27 01:05:00;;;;;;;2.09;0.95;;;;;;;5.46;48.33;98666.47;1986385;81;20335;-73
2021/04/27 01:08:10;;;;;;;3.60;0.80;;;;;;;5.42;46.89;98664.75;1986268;81;20385;-73
2021/04/27 01:11:33;;;;;;;0.77;0.70;;;;;;;5.39;46.60;98663.88;1986068;81;20377;-74
2021/04/27 01:14:40;;;;;;;2.20;0.90;;;;;;;5.35;46.67;98665.56;1986300;81;20336;-74
2021/04/27 01:17:43;;;;;;;0.91;0.70;;;;;;;5.33;46.12;98667.28;1989430;81;21605;-73
2021/04/27 01:20:48;;;;;;;1.19;0.70;;;;;;;5.38;45.83;98659.56;1994183;81;20311;-74
2021/04/27 01:23:58;;;;;;;1.90;0.76;;;;;;;5.39;46.23;98666.47;1990924;81;20895;-74
2021/04/27 01:27:02;;;;;;;3.71;0.77;;;;;;;5.32;47.12;98660.41;1990584;81;21035;-73
2021/04/27 01:30:05;;;;;;;4.30;1.15;;;;;;;5.30;47.20;98658.69;1990871;81;20344;-73
2021/04/27 01:33:18;;;;;;;1.80;0.80;;;;;;;5.28;47.42;98653.53;1985848;79;21049;-73
2021/04/27 01:36:20;;;;;;;2.92;0.85;;;;;;;5.25;47.19;98650.09;1986886;81;20337;-73
2021/04/27 01:39:27;;;;;;;4.85;0.98;;;;;;;5.21;48.26;98641.50;1987095;81;20360;-73
2021/04/27 01:42:29;;;;;;;2.75;0.76;;;;;;;5.19;47.38;98643.19;1987298;81;20327;-73
2021/04/27 01:45:31;;;;;;;2.46;1.04;;;;;;;5.19;47.15;98639.75;1986212;79;21032;-73
2021/04/27 01:48:37;;;;;;;2.58;0.98;;;;;;;5.22;46.90;98638.06;1987969;81;20337;-81
2021/04/27 01:51:39;;;;;;;2.15;0.95;;;;;;;5.26;47.01;98636.38;1988851;81;20791;-79
2021/04/27 01:54:40;;;;;;;1.30;0.99;;;;;;;5.25;46.97;98640.66;1988131;81;20951;-80
2021/04/27 01:57:42;;;;;;;1.71;0.93;;;;;;;5.23;47.22;98633.78;1988141;81;20320;-80
2021/04/27 02:00:45;;;;;;;2.06;1.01;;;;;;;5.21;46.67;98631.22;1988625;79;24191;-81
2021/04/27 02:03:49;;;;;;;1.71;0.99;;;;;;;5.17;46.75;98637.16;1995056;81;20352;-81
2021/04/27 02:06:51;;;;;;;1.88;1.10;;;;;;;5.20;47.72;98631.16;1995740;81;20356;-80
2021/04/27 02:09:53;;;;;;;1.45;0.95;;;;;;;5.15;48.42;98626.88;1994129;81;20351;-80
2021/04/27 02:13:01;;;;;;;1.99;0.90;;;;;;;5.10;49.23;98631.16;1995088;81;20353;-80
2021/04/27 02:16:04;;;;;;;2.71;1.00;;;;;;;5.08;48.53;98627.69;1992085;79;22182;-80
2021/04/27 02:19:08;;;;;;;1.65;0.94;;;;;;;5.09;47.36;98624.28;1989550;81;20199;-80
2021/04/27 02:22:11;;;;;;;1.76;0.79;;;;;;;5.14;47.02;98630.28;1989247;81;20336;-80
2021/04/27 02:25:13;;;;;;;1.13;0.84;;;;;;;5.31;45.73;98634.66;1989161;81;20369;-80
2021/04/27 02:28:18;;;;;;;1.63;1.01;;;;;;;5.41;45.66;98631.28;1989844;81;20353;-80
2021/04/27 02:31:20;;;;;;;2.17;0.90;;;;;;;5.44;45.70;98631.28;1988850;81;40126;-80
2021/04/27 02:34:23;;;;;;;2.08;0.86;;;;;;;5.44;45.62;98626.16;1990042;81;20387;-79
2021/04/27 02:37:25;;;;;;;1.90;0.89;;;;;;;5.49;45.50;98618.44;1989470;81;20811;-79
2021/04/27 02:40:28;;;;;;;1.31;0.75;;;;;;;5.49;45.24;98618.44;1989918;81;20362;-80
2021/04/27 02:43:31;;;;;;;1.45;0.96;;;;;;;5.51;45.49;98627.00;1989623;81;20357;-81
2021/04/27 02:46:33;;;;;;;1.25;0.80;;;;;;;5.56;45.04;98623.59;1993816;79;26227;-80
2021/04/27 02:49:35;;;;;;;1.15;0.66;;;;;;;5.64;44.62;98618.47;1995481;81;20314;-82
2021/04/27 02:52:37;;;;;;;2.20;0.80;;;;;;;5.61;46.07;98621.91;1994143;81;20404;-79
2021/04/27 02:55:39;;;;;;;1.24;0.74;;;;;;;5.50;47.69;98615.00;1994038;81;20351;-80
2021/04/27 02:58:41;;;;;;;2.80;0.77;;;;;;;5.33;49.79;98613.22;1994232;81;20351;-79
2021/04/27 03:01:43;;;;;;;0.82;0.60;;;;;;;5.18;50.30;98607.16;1989684;79;24233;-80
2021/04/27 03:04:44;;;;;;;2.56;0.71;;;;;;;5.12;49.04;98608.84;1988908;81;20324;-80
2021/04/27 03:07:46;;;;;;;3.25;0.70;;;;;;;5.12;48.79;98606.28;1987456;81;20650;-80
2021/04/27 03:10:48;;;;;;;1.65;1.23;;;;;;;5.07;51.05;98599.41;1987127;81;20338;-80
2021/04/27 03:13:53;;;;;;;0.63;0.63;;;;;;;5.03;51.72;98600.25;1987321;81;20327;-79
2021/04/27 03:16:55;;;;;;;1.46;0.95;;;;;;;4.93;52.14;98594.19;1986301;79;23617;-79
2021/04/27 03:19:56;;;;;;;3.03;0.70;;;;;;;4.89;51.08;98589.00;1986618;81;20362;-79
2021/04/27 03:22:58;;;;;;;1.36;0.70;;;;;;;4.97;50.01;98592.47;1986479;81;20374;-79
2021/04/27 03:26:00;;;;;;;1.35;0.80;;;;;;;4.97;50.58;98600.19;1988173;81;20871;-79
2021/04/27 03:29:04;;;;;;;0.85;0.74;;;;;;;4.94;50.79;98592.47;1987121;81;20355;-79
2021/04/27 03:32:06;;;;;;;1.50;0.60;;;;;;;4.85;51.39;98588.16;1989798;79;21107;-80
2021/04/27 03:35:10;;;;;;;1.41;0.80;;;;;;;4.85;51.51;98598.44;1991758;81;20821;-79
2021/04/27 03:38:12;;;;;;;1.29;0.70;;;;;;;4.81;51.58;98583.81;1991748;81;20388;-79
2021/04/27 03:41:14;;;;;;;1.27;0.60;;;;;;;4.80;51.88;98589.81;1992307;81;20319;-80
2021/04/27 03:44:15;;;;;;;2.24;0.75;;;;;;;4.73;52.93;98588.06;1991676;81;20322;-79
2021/04/27 03:47:17;;;;;;;0.77;0.60;;;;;;;4.60;53.32;98587.13;1987745;79;20649;-80
2021/04/27 03:50:19;;;;;;;0.77;0.63;;;;;;;4.49;54.05;98589.66;1987028;81;20722;-80
2021/04/27 03:53:21;;;;;;;0.60;0.52;;;;;;;4.47;54.54;98586.19;1987752;81;20348;-80
2021/04/27 03:56:24;;;;;;;1.79;0.65;;;;;;;4.39;54.11;98599.84;1990248;81;21134;-82
2021/04/27 03:59:26;;;;;;;2.34;0.60;;;;;;;4.41;53.08;98591.28;1990370;81;20312;-80
2021/04/27 04:02:27;;;;;;;1.04;0.74;;;;;;;4.47;52.72;98600.75;1991235;79;20921;-80
2021/04/27 04:05:29;;;;;;;2.26;0.80;;;;;;;4.54;50.47;98599.94;1993272;81;20326;-81
2021/04/27 04:08:32;;;;;;;1.88;0.77;;;;;;;4.60;49.91;98586.25;1994712;81;20350;-81
2021/04/27 04:11:34;;;;;;;1.90;0.70;;;;;;;4.75;48.78;98588.94;1993263;81;20318;-81
2021/04/27 04:14:36;;;;;;;0.70;0.60;;;;;;;4.73;49.90;98585.50;1993570;81;20461;-80
2021/04/27 04:17:39;;;;;;;3.44;0.54;;;;;;;4.64;51.85;98583.72;1987162;79;22264;-80
2021/04/27 04:20:41;;;;;;;1.35;0.79;;;;;;;4.51;53.68;98592.22;1987501;81;20352;-80
2021/04/27 04:23:42;;;;;;;1.24;0.76;;;;;;;4.35;52.91;98587.81;1986892;81;20407;-80
2021/04/27 04:26:44;;;;;;;2.75;0.60;;;;;;;4.33;53.66;98594.66;1986590;81;20357;-80
2021/04/27 04:29:46;;;;;;;1.65;0.80;;;;;;;4.15;55.16;98598.81;1987448;81;20799;-80
2021/04/27 04:32:48;;;;;;;1.13;1.02;;;;;;;4.09;56.34;98596.16;1986024;81;25722;-79
2021/04/27 04:35:50;;;;;;;2.69;0.90;;;;;;;3.96;56.51;98601.22;1989867;81;20304;-79
2021/04/27 04:38:52;;;;;;;0.95;0.65;;;;;;;3.90;54.81;98599.41;1986850;81;20328;-79
2021/04/27 04:41:54;;;;;;;1.08;0.70;;;;;;;3.92;55.66;98603.72;1986822;81;21119;-79
2021/04/27 04:44:55;;;;;;;2.66;0.70;;;;;;;3.92;56.26;98608.84;1986794;81;20356;-79
2021/04/27 04:47:58;;;;;;;2.99;0.60;;;;;;;3.94;56.37;98607.16;1991092;79;23143;-79
2021/04/27 04:51:00;;;;;;;2.21;0.70;;;;;;;3.98;57.20;98607.22;1991775;81;20340;-79
2021/04/27 04:54:02;;;;;;;0.65;0.60;;;;;;;4.00;57.95;98603.81;1991985;81;20384;-80
2021/04/27 04:57:04;;;;;;;0.81;0.57;;;;;;;4.05;58.22;98608.97;1992091;81;20322;-79
2021/04/27 05:00:12;;;;;;;0.88;0.71;;;;;;;4.04;58.08;98602.97;1991280;81;20439;-79
2021/04/27 05:03:14;;;;;;;0.75;0.66;;;;;;;4.11;57.72;98616.72;1986688;81;20308;-79
2021/04/27 05:06:17;;;;;;;1.76;0.70;;;;;;;4.17;57.75;98619.38;1987199;81;20320;-80
2021/04/27 05:09:19;;;;;;;1.02;0.93;;;;;;;4.18;56.96;98623.66;1986132;81;20377;-80
2021/04/27 05:12:21;;;;;;;2.31;0.60;;;;;;;4.20;57.24;98622.81;1986871;81;20738;-81
2021/04/27 05:15:22;;;;;;;0.98;0.73;;;;;;;4.28;57.69;98624.56;1986934;79;22655;-80
2021/04/27 05:18:24;;;;;;;4.66;0.86;;;;;;;4.31;57.90;98622.91;1992629;81;20644;-80
2021/04/27 05:21:26;;;;;;;2.49;0.70;;;;;;;4.34;57.19;98632.34;1993114;81;20427;-80
2021/04/27 05:24:29;;;;;;;1.20;0.70;;;;;;;4.37;56.76;98628.09;1992771;81;20326;-80
2021/04/27 05:27:36;;;;;;;0.52;0.51;;;;;;;4.47;57.58;98629.00;1996707;81;20303;-79
2021/04/27 05:30:38;;;;;;;1.91;0.90;;;;;;;4.60;56.83;98623.13;1989278;79;23431;-79
2021/04/27 05:33:40;;;;;;;1.05;0.80;;;;;;;4.73;57.08;98624.06;1987230;81;20353;-79
2021/04/27 05:36:43;;;;;;;2.29;0.85;;;;;;;4.83;57.12;98618.97;1987250;81;20327;-80
2021/04/27 05:39:44;;;;;;;0.99;0.70;;;;;;;5.00;56.80;98625.94;1987349;81;20855;-80
2021/04/27 05:42:46;;;;;;;3.03;1.45;;;;;;;5.23;54.97;98621.78;1986840;81;20320;-77
2021/04/27 05:45:48;;;;;;;4.49;0.65;;;;;;;5.45;54.05;98625.28;1982746;81;24778;-74
2021/04/27 05:48:49;;;;;;;2.30;0.80;;;;;;;5.70;52.95;98621.91;1993981;81;21455;-75
2021/04/27 05:51:52;;;;;;;2.24;1.04;;;;;;;5.99;51.25;98622.03;1990528;81;20471;-73
2021/04/27 05:54:54;;;;;;;2.25;0.86;;;;;;;6.38;49.66;98615.16;1990132;81;20716;-72
2021/04/27 05:57:56;;;;;;;4.05;0.80;;;;;;;6.77;47.18;98614.25;1990338;81;20378;-73
2021/04/27 06:00:58;;;;;;;4.09;0.52;;;;;;;7.17;44.81;98620.16;1987973;79;23837;-73
2021/04/27 06:04:07;;;;;;;1.02;0.56;;;;;;;7.71;43.50;98610.47;1985540;81;21148;-73
2021/04/27 06:07:10;;;;;;;2.36;0.81;;;;;;;8.07;42.35;98614.53;1986167;81;20583;-73
2021/04/27 06:10:12;;;;;;;1.08;0.74;;;;;;;8.39;41.31;98609.16;1985587;81;20184;-73
2021/04/27 06:13:14;;;;;;;0.98;0.65;;;;;;;8.50;40.54;98610.81;1986207;81;20734;-77
2021/04/27 06:16:16;;;;;;;1.13;0.68;;;;;;;8.55;40.27;98609.91;1984945;79;20831;-75
2021/04/27 06:19:18;;;;;;;1.45;0.80;;;;;;;8.85;39.96;98618.25;1986564;81;20209;-76
2021/04/27 06:22:20;;;;;;;1.00;0.77;;;;;;;9.07;39.20;98602.47;1985810;81;20659;-75
2021/04/27 06:25:21;;;;;;;4.26;0.75;;;;;;;9.30;39.17;98609.13;1986464;81;20209;-76
2021/04/27 06:28:23;;;;;;;2.86;1.20;;;;;;;9.58;38.71;98607.91;1986909;81;20223;-76
2021/04/27 06:31:25;;;;;;;2.30;0.80;;;;;;;9.80;37.37;98607.59;1988024;79;23317;-76
2021/04/27 06:34:26;;;;;;;1.45;1.10;;;;;;;9.98;37.00;98612.53;1991749;81;20183;-77
2021/04/27 06:37:28;;;;;;;2.29;0.84;;;;;;;10.09;36.82;98607.19;1991839;81;20205;-75
2021/04/27 06:40:31;;;;;;;2.64;0.70;;;;;;;10.11;36.27;98606.28;1992096;81;20843;-76
2021/04/27 06:43:33;;;;;;;1.67;0.70;;;;;;;10.31;36.35;98615.53;1992347;81;20661;-76
2021/04/27 06:46:35;;;;;;;1.71;0.76;;;;;;;10.54;35.63;98613.41;1987819;79;21754;-76
2021/04/27 06:49:37;;;;;;;2.83;1.98;;;;;;;10.56;35.36;98614.25;1986665;81;20207;-75
2021/04/27 06:52:39;;;;;;;3.04;0.88;;;;;;;10.92;35.32;98606.69;1986511;81;20935;-80
2021/04/27 06:55:42;;;;;;;2.13;0.86;;;;;;;11.15;34.82;98608.00;1987072;81;20377;-77
2021/04/27 06:58:43;;;;;;;2.35;0.65;;;;;;;11.37;34.44;98603.22;1986928;81;20256;-78
2021/04/27 07:01:47;;;;;;;2.45;0.88;;;;;;;11.44;33.54;98598.75;1989050;79;21443;-75
2021/04/27 07:04:49;;;;;;;2.65;0.85;;;;;;;11.68;33.74;98613.00;1992245;81;20650;-76
2021/04/27 07:07:51;;;;;;;2.69;0.80;;;;;;;11.93;33.03;98602.91;1991722;81;20167;-75
2021/04/27 07:10:59;;;;;;;2.65;0.80;;;;;;;12.14;32.79;98602.44;1992394;81;20309;-74
2021/04/27 07:14:01;;;;;;;3.34;1.25;;;;;;;12.29;32.32;98603.81;1991707;81;20512;-76
2021/04/27 07:17:03;;;;;;;1.36;0.81;;;;;;;12.37;32.01;98597.50;1987725;78;22101;-76
2021/04/27 07:20:07;;;;;;;4.74;0.90;;;;;;;12.68;31.88;98596.75;1986696;81;20308;-77
2021/04/27 07:23:09;;;;;;;3.38;1.04;;;;;;;12.90;31.47;98597.03;1987421;81;20337;-80
2021/04/27 07:26:11;;;;;;;2.39;0.85;;;;;;;13.18;31.71;98594.59;1986416;81;20205;-77
2021/04/27 07:29:14;;;;;;;5.65;0.98;;;;;;;13.36;31.19;98594.09;1987608;81;20859;-74
2021/04/27 07:32:16;;;;;;;2.11;0.66;;;;;;;13.63;31.40;98583.72;1986180;79;20225;-80
2021/04/27 07:35:18;;;;;;;3.00;1.00;;;;;;;13.87;30.83;98590.84;1988079;81;20214;-76
2021/04/27 07:38:20;;;;;;;3.94;0.80;;;;;;;14.00;29.94;98584.31;1987044;81;20167;-77
2021/04/27 07:41:22;;;;;;;5.19;0.90;;;;;;;13.95;29.79;98582.75;1988942;81;20659;-75
2021/04/27 07:44:23;;;;;;;4.28;0.82;;;;;;;14.08;29.86;98584.09;1987854;81;20207;-74
2021/04/27 07:47:26;;;;;;;2.15;0.80;;;;;;;14.31;29.10;98578.97;1989890;81;26523;-73
2021/04/27 07:50:29;;;;;;;1.05;0.84;;;;;;;14.37;28.95;98583.19;1992180;81;20191;-74
2021/04/27 07:53:30;;;;;;;2.22;0.88;;;;;;;14.62;28.77;98583.25;1991942;81;20327;-74
2021/04/27 07:56:33;;;;;;;1.54;0.90;;;;;;;14.84;28.66;98586.81;1991928;81;20188;-75
2021/04/27 07:59:35;;;;;;;2.40;0.70;;;;;;;14.87;28.73;98581.47;1991668;81;20194;-75
2021/04/27 08:02:37;;;;;;;0.96;0.70;;;;;;;14.91;28.47;98583.09;1986946;79;21273;-76
2021/04/27 08:05:40;;;;;;;3.53;0.81;;;;;;;14.64;27.69;98584.88;1986702;81;20255;-77
2021/04/27 08:08:42;;;;;;;2.21;0.86;;;;;;;14.59;28.67;98580.72;1986987;81;20376;-76
2021/04/27 08:11:43;;;;;;;2.34;1.01;;;;;;;14.78;28.79;98577.44;1987274;81;20210;-77
2021/04/27 08:14:45;;;;;;;3.85;0.90;;;;;;;14.90;28.47;98570.06;1987162;81;20184;-77
2021/04/27 08:17:48;;;;;;;3.05;0.76;;;;;;;15.14;28.90;98563.13;1991448;79;20276;-78
2021/04/27 08:20:50;;;;;;;6.03;1.21;;;;;;;15.46;28.62;98575.88;1993318;81;21077;-78
2021/04/27 08:23:53;;;;;;;2.61;0.76;;;;;;;15.81;27.87;98573.72;1992433;81;20741;-77
2021/04/27 08:26:56;;;;;;;5.26;1.31;;;;;;;15.87;27.52;98571.72;1992243;81;20175;-76
2021/04/27 08:29:59;;;;;;;3.01;0.71;;;;;;;16.15;27.47;98563.59;1992447;81;20179;-75
2021/04/27 08:33:01;;;;;;;4.21;0.85;;;;;;;16.56;27.15;98572.41;1990979;79;22361;-74
2021/04/27 08:36:04;;;;;;;2.59;0.90;;;;;;;16.61;26.43;98561.72;1991907;81;20208;-75
2021/04/27 08:39:06;;;;;;;1.75;0.95;;;;;;;16.67;26.35;98560.63;1992777;81;20194;-76
2021/04/27 08:42:11;;;;;;;2.74;1.23;;;;;;;16.86;26.35;98565.03;1991483;81;20839;-77
2021/04/27 08:45:13;;;;;;;2.35;1.00;;;;;;;16.74;26.35;98562.09;1990986;81;20179;-76
2021/04/27 08:48:15;;;;;;;2.34;0.76;;;;;;;17.05;26.25;98558.97;1985983;79;20857;-77
2021/04/27 08:51:17;;;;;;;4.16;1.30;;;;;;;17.04;26.12;98546.78;1987542;81;20979;-77
2021/04/27 08:54:26;;;;;;;2.33;1.00;;;;;;;17.02;26.43;98557.34;1986787;81;20176;-77
2021/04/27 08:57:27;;;;;;;1.64;0.85;;;;;;;17.09;26.76;98555.34;1987089;81;20925;-77
2021/04/27 09:00:29;;;;;;;3.67;0.91;;;;;;;17.27;26.34;98544.00;1987694;81;22423;-77
2021/04/27 09:03:45;;;;;;;1.02;0.93;;;;;;;17.25;26.48;98542.38;1992474;81;20334;-77
2021/04/27 09:07:03;;;;;;;1.83;0.90;;;;;;;17.66;26.19;98541.34;1992349;81;20358;-77
2021/04/27 09:10:23;;;;;;;3.20;1.06;;;;;;;17.69;25.71;98537.75;1992922;81;20198;-77
2021/04/27 09:13:26;;;;;;;1.60;1.06;;;;;;;17.78;25.46;98538.19;1993316;81;20220;-79
2021/04/27 09:16:28;;;;;;;3.63;1.15;;;;;;;17.79;25.69;98537.25;1988708;79;20846;-78
2021/04/27 09:19:39;;;;;;;2.74;0.93;;;;;;;17.93;25.54;98530.47;1987744;81;20691;-79
2021/04/27 09:22:41;;;;;;;3.38;0.95;;;;;;;17.73;25.42;98531.41;1988005;81;20281;-78
2021/04/27 09:26:05;;;;;;;4.49;1.23;;;;;;;17.22;26.27;98525.84;1987267;81;20176;-79
2021/04/27 09:29:08;;;;;;;3.28;1.20;;;;;;;17.78;25.63;98524.19;1987197;81;20683;-77
2021/04/27 09:32:11;;;;;;;3.40;0.95;;;;;;;18.02;25.70;98525.63;1986240;79;25306;-77
2021/04/27 09:35:35;;;;;;;2.74;1.01;;;;;;;18.11;25.48;98522.53;1987075;81;20187;-77
2021/04/27 09:38:37;;;;;;;13.44;2.04;;;;;;;18.49;25.04;98525.06;1986959;81;20225;-78
2021/04/27 09:41:39;;;;;;;4.51;1.30;;;;;;;18.22;24.46;98511.50;1986563;81;20722;-78
2021/04/27 09:44:50;;;;;;;4.39;1.20;;;;;;;18.47;25.19;98505.88;1985611;81;20217;-77
2021/04/27 09:47:52;;;;;;;3.01;1.27;;;;;;;18.52;25.34;98501.25;1985590;79;23910;-77
2021/04/27 09:50:55;;;;;;;1.77;1.19;;;;;;;18.81;25.68;98505.03;1986650;81;20663;-77
2021/04/27 09:53:59;;;;;;;2.35;1.15;;;;;;;19.12;24.38;98501.66;1987032;81;20510;-77
2021/04/27 09:57:02;;;;;;;4.50;1.29;;;;;;;19.13;24.63;98499.84;1986676;81;20175;-77
2021/04/27 10:00:36;;;;;;;1.60;1.39;;;;;;;19.22;24.14;98487.06;1986969;81;20245;-77
2021/04/27 10:03:38;;;;;;;2.31;1.10;;;;;;;19.48;24.72;98487.41;1994217;81;20208;-78
2021/04/27 10:06:42;;;;;;;8.51;1.16;;;;;;;19.68;23.80;98481.94;1992105;81;20590;-76
2021/04/27 10:09:47;;;;;;;1.69;1.25;;;;;;;19.53;23.22;98483.59;1992749;81;20199;-79
2021/04/27 10:12:49;;;;;;;4.03;1.56;;;;;;;18.94;23.28;98481.56;1994166;81;20240;-78
2021/04/27 10:15:51;;;;;;;6.93;1.06;;;;;;;19.49;23.76;98476.81;1992426;79;20429;-79
2021/04/27 10:18:53;;;;;;;2.71;1.34;;;;;;;19.64;23.29;98483.03;1990104;81;20191;-80
2021/04/27 10:21:55;;;;;;;2.49;1.20;;;;;;;19.64;23.15;98466.38;1989455;81;20947;-79
2021/04/27 10:24:58;;;;;;;2.80;1.59;;;;;;;19.97;23.57;98468.91;1989089;81;20179;-77
2021/04/27 10:28:08;;;;;;;8.14;1.61;;;;;;;20.29;22.88;98457.34;1989126;81;20229;-78
2021/04/27 10:31:16;;;;;;;4.35;1.44;;;;;;;20.28;22.86;98454.78;1989110;79;21202;-77
2021/04/27 10:34:18;;;;;;;4.05;1.50;;;;;;;20.28;23.71;98450.34;1993542;81;20374;-77
2021/04/27 10:37:20;;;;;;;3.97;1.99;;;;;;;20.26;22.08;98452.22;1992839;81;20200;-77
2021/04/27 10:40:40;;;;;;;3.53;1.23;;;;;;;20.50;21.83;98442.91;1993866;81;20549;-77
2021/04/27 10:43:44;;;;;;;3.92;1.70;;;;;;;20.67;22.03;98441.06;1993784;81;20700;-78
2021/04/27 10:46:52;;;;;;;2.84;1.50;;;;;;;20.72;21.64;98437.19;1993661;78;22579;-77
2021/04/27 10:49:56;;;;;;;4.25;1.70;;;;;;;20.52;21.85;98427.84;1994251;81;20390;-77
2021/04/27 10:53:29;;;;;;;2.29;1.13;;;;;;;20.79;21.24;98421.81;1993279;81;20290;-76
2021/04/27 10:56:42;;;;;;;3.81;1.41;;;;;;;20.25;21.14;98418.91;1990789;81;20193;-74
2021/04/27 11:00:04;;;;;;;5.29;1.73;;;;;;;20.42;22.23;98423.19;1992474;81;20206;-74
2021/04/27 11:03:16;;;;;;;2.79;1.64;;;;;;;20.70;21.91;98422.41;1982127;81;27966;-73
2021/04/27 11:06:41;;;;;;;1.54;1.39;;;;;;;20.88;21.96;98417.78;1982115;81;20214;-72
2021/04/27 11:09:58;;;;;;;2.44;1.51;;;;;;;21.06;20.51;98406.06;1982353;81;20212;-72
2021/04/27 11:13:15;;;;;;;4.32;1.59;;;;;;;20.91;20.53;98415.78;1982121;81;20176;-73
2021/04/27 11:16:30;;;;;;;1.92;1.38;;;;;;;20.85;20.90;98408.25;1985290;79;20807;-73
2021/04/27 11:19:32;;;;;;;3.96;1.51;;;;;;;21.01;21.27;98401.09;1991904;81;20867;-72
2021/04/27 11:22:35;;;;;;;2.45;1.65;;;;;;;21.21;21.11;98393.72;1992135;81;20167;-72
2021/04/27 11:25:37;;;;;;;2.71;1.50;;;;;;;21.05;20.81;98392.03;1991550;81;20290;-73
2021/04/27 11:28:57;;;;;;;2.50;1.74;;;;;;;20.72;20.99;98389.69;1991954;81;20183;-72
2021/04/27 11:32:06;;;;;;;3.67;1.71;;;;;;;21.16;20.50;98386.06;1987680;79;20510;-73
2021/04/27 11:35:12;;;;;;;2.36;1.80;;;;;;;21.30;20.58;98386.06;1986877;81;20209;-73
2021/04/27 11:38:14;;;;;;;3.47;1.96;;;;;;;21.62;20.42;98389.25;1986752;81;20184;-73
2021/04/27 11:41:15;;;;;;;3.47;1.63;;;;;;;21.96;20.41;98385.25;1986348;81;20738;-72
2021/04/27 11:44:31;;;;;;;3.99;1.61;;;;;;;21.69;20.54;98379.13;1987207;81;20684;-73
2021/04/27 11:47:39;;;;;;;4.44;1.40;;;;;;;21.78;19.74;98378.53;1990018;79;20187;-73
2021/04/27 11:50:41;;;;;;;3.88;1.60;;;;;;;21.82;19.96;98379.19;1991592;81;20179;-73
2021/04/27 11:53:59;;;;;;;5.01;1.50;;;;;;;21.92;20.22;98378.47;1992200;81;20203;-73
2021/04/27 11:57:18;;;;;;;2.51;1.51;;;;;;;21.73;19.34;98370.06;1991613;81;20225;-73
2021/04/27 12:00:27;;;;;;;5.39;1.70;;;;;;;22.03;19.31;98373.28;1989850;79;20691;-73
2021/04/27 12:03:34;;;;;;;2.59;1.52;;;;;;;21.93;20.07;98361.66;1986645;81;20770;-73
2021/04/27 12:06:35;;;;;;;4.36;1.49;;;;;;;21.92;19.61;98361.75;1986306;81;20216;-73
2021/04/27 12:09:42;;;;;;;2.90;1.80;;;;;;;21.85;19.31;98363.09;1987366;81;20196;-73
2021/04/27 12:12:46;;;;;;;2.69;1.55;;;;;;;21.89;19.15;98361.94;1986221;81;20171;-69
2021/04/27 12:16:06;;;;;;;2.25;1.60;;;;;;;22.06;19.11;98364.34;1986995;79;20217;-71
2021/04/27 12:19:16;;;;;;;3.40;1.35;;;;;;;22.02;19.53;98354.91;1991985;81;20187;-71
2021/04/27 12:22:18;;;;;;;2.00;1.42;;;;;;;21.57;18.89;98350.91;1991323;81;20213;-71
2021/04/27 12:25:28;;;;;;;3.51;1.60;;;;;;;21.80;18.35;98341.44;1990170;81;20237;-71
2021/04/27 12:28:35;;;;;;;3.65;1.73;;;;;;;21.74;18.09;98326.00;1990791;81;20187;-71
2021/04/27 12:31:38;;;;;;;2.69;1.36;;;;;;;22.05;19.44;98325.63;1987488;79;20233;-70
2021/04/27 12:35:03;;;;;;;5.28;1.44;;;;;;;22.27;18.87;98338.25;1986918;81;20636;-70
2021/04/27 12:38:11;;;;;;;2.42;1.10;;;;;;;22.39;18.90;98329.44;1986748;81;20183;-71
2021/04/27 12:41:13;;;;;;;3.89;1.58;;;;;;;22.60;18.94;98324.44;1985677;81;20201;-70
2021/04/27 12:44:28;;;;;;;2.81;1.58;;;;;;;22.72;18.94;98314.81;1986449;81;20188;-71
2021/04/27 12:47:31;;;;;;;4.59;1.40;;;;;;;22.44;17.98;98308.84;1989287;79;21714;-70
2021/04/27 12:50:46;;;;;;;4.49;1.30;;;;;;;22.40;18.43;98302.03;1990397;81;20191;-70
2021/04/27 12:53:47;;;;;;;4.14;1.31;;;;;;;22.21;19.22;98306.91;1990607;81;20340;-69
2021/04/27 12:57:07;;;;;;;2.92;1.56;;;;;;;22.30;19.29;98296.56;1990132;81;20203;-71
2021/04/27 13:00:17;;;;;;;7.34;2.08;;;;;;;22.60;19.50;98290.91;1990008;81;20175;-72
2021/04/27 13:03:22;;;;;;;6.35;1.46;;;;;;;22.74;19.71;98286.44;1986740;81;20231;-70
2021/04/27 13:06:29;;;;;;;1.24;1.13;;;;;;;23.05;19.29;98285.09;1986150;81;20171;-70
2021/04/27 13:09:31;;;;;;;5.93;1.39;;;;;;;22.65;18.47;98287.94;1987036;81;20229;-68
2021/04/27 13:12:33;;;;;;;2.97;1.81;;;;;;;22.06;15.54;98274.44;1986740;81;20261;-69
2021/04/27 13:15:34;;;;;;;3.00;1.39;;;;;;;22.19;18.20;98271.81;1986202;79;20723;-72
2021/04/27 13:18:36;;;;;;;1.60;1.26;;;;;;;22.43;17.72;98282.47;1991082;81;20197;-69
2021/04/27 13:22:13;;;;;;;2.14;1.29;;;;;;;22.64;18.66;98258.94;1994239;81;20616;-71
2021/04/27 13:25:22;;;;;;;4.13;1.36;;;;;;;22.77;18.41;98265.03;1991512;81;20324;-71
2021/04/27 13:28:24;;;;;;;2.65;0.98;;;;;;;22.91;17.50;98255.16;1990135;81;20199;-71
2021/04/27 13:31:26;;;;;;;4.05;1.29;;;;;;;22.85;16.55;98255.63;1986378;79;22658;-71
2021/04/27 13:34:27;;;;;;;2.00;1.02;;;;;;;22.88;16.21;98254.56;1984396;81;20217;-71
2021/04/27 13:37:29;;;;;;;2.71;1.19;;;;;;;23.25;16.79;98249.19;1984765;81;20188;-70
2021/04/27 13:40:34;;;;;;;3.72;1.19;;;;;;;23.33;16.47;98244.16;1984674;81;20806;-70
2021/04/27 13:43:43;;;;;;;1.70;1.16;;;;;;;22.46;15.55;98243.44;1984900;81;20298;-70
2021/04/27 13:46:45;;;;;;;4.75;1.35;;;;;;;22.40;17.17;98245.66;1987187;79;20234;-70
2021/04/27 13:49:47;;;;;;;7.99;2.06;;;;;;;22.44;17.39;98240.06;1989446;81;20289;-71
2021/04/27 13:52:49;;;;;;;2.08;1.30;;;;;;;22.71;17.16;98237.22;1989499;81;20578;-70
2021/04/27 13:55:51;;;;;;;2.26;1.46;;;;;;;22.47;17.31;98228.41;1990406;81;20220;-73
2021/04/27 13:58:53;;;;;;;3.04;1.30;;;;;;;22.47;18.60;98217.81;1990975;81;20156;-71
2021/04/27 14:01:54;;;;;;;1.33;1.17;;;;;;;22.70;18.21;98219.66;1987725;79;20656;-72
2021/04/27 14:04:56;;;;;;;2.40;1.27;;;;;;;23.04;18.18;98215.41;1985737;81;20278;-72
2021/04/27 14:07:58;;;;;;;3.05;1.19;;;;;;;22.90;16.09;98212.94;1986032;81;20167;-73
2021/04/27 14:11:00;;;;;;;2.91;1.20;;;;;;;22.95;17.60;98215.22;1986943;81;20180;-71
2021/04/27 14:14:02;;;;;;;4.96;1.31;;;;;;;22.84;17.33;98205.44;1986727;81;20203;-71
2021/04/27 14:17:04;;;;;;;3.84;1.30;;;;;;;23.00;17.73;98210.47;1988942;78;20443;-71
2021/04/27 14:20:08;;;;;;;1.76;1.31;;;;;;;22.61;16.75;98202.63;1991566;81;20657;-71
2021/04/27 14:23:11;;;;;;;3.11;1.60;;;;;;;22.38;16.28;98203.44;1991297;81;20260;-72
2021/04/27 14:26:13;;;;;;;7.88;1.40;;;;;;;22.34;16.95;98204.63;1990895;81;20175;-72
2021/04/27 14:29:15;;;;;;;3.31;1.44;;;;;;;22.56;17.83;98198.63;1991920;81;20187;-72
2021/04/27 14:32:17;;;;;;;5.44;1.56;;;;;;;21.97;16.80;98204.53;1986705;79;20205;-71